sensor_id;sensor_type;location;lat;lon;timestamp;pressure;altitude;pressure_sealevel;temperature;humidity
61436;BME280;47304;47.456;19.160;2023-02-14T00:00:21;102018.55;;;0.25;71.41
61436;BME280;47304;47.456;19.160;2023-02-14T00:02:48;102013.18;;;0.21;71.47
61436;BME280;47304;47.456;19.160;2023-02-14T00:05:15;102018.16;;;0.19;71.40
61436;BME280;47304;47.456;19.160;2023-02-14T00:07:41;102019.80;;;0.15;71.53
61436;BME280;47304;47.456;19.160;2023-02-14T00:10:08;102017.23;;;0.10;71.49
61436;BME280;47304;47.456;19.160;2023-02-14T00:12:35;102025.92;;;0.06;71.36
61436;BME280;47304;47.456;19.160;2023-02-14T00:15:02;102020.95;;;0.01;71.42
61436;BME280;47304;47.456;19.160;2023-02-14T00:17:29;102020.68;;;-0.03;71.47
61436;BME280;47304;47.456;19.160;2023-02-14T00:19:55;102021.33;;;-0.06;71.58
61436;BME280;47304;47.456;19.160;2023-02-14T00:22:22;102018.55;;;-0.09;71.62
61436;BME280;47304;47.456;19.160;2023-02-14T00:24:48;102024.59;;;-0.11;71.52
61436;BME280;47304;47.456;19.160;2023-02-14T00:27:15;102020.16;;;-0.12;71.66
61436;BME280;47304;47.456;19.160;2023-02-14T00:29:41;102014.29;;;-0.16;71.78
61436;BME280;47304;47.456;19.160;2023-02-14T00:32:08;102015.59;;;-0.17;71.67
61436;BME280;47304;47.456;19.160;2023-02-14T00:34:34;102011.02;;;-0.18;71.65
61436;BME280;47304;47.456;19.160;2023-02-14T00:37:02;102007.13;;;-0.20;71.67
61436;BME280;47304;47.456;19.160;2023-02-14T00:39:30;102004.18;;;-0.22;71.67
61436;BME280;47304;47.456;19.160;2023-02-14T00:41:57;102012.14;;;-0.24;71.74
61436;BME280;47304;47.456;19.160;2023-02-14T00:44:24;102019.89;;;-0.26;71.69
61436;BME280;47304;47.456;19.160;2023-02-14T00:46:50;102026.51;;;-0.28;71.69
61436;BME280;47304;47.456;19.160;2023-02-14T00:49:17;102027.38;;;-0.30;71.79
61436;BME280;47304;47.456;19.160;2023-02-14T00:51:43;102028.48;;;-0.32;72.00
61436;BME280;47304;47.456;19.160;2023-02-14T00:54:10;102027.53;;;-0.33;71.93
61436;BME280;47304;47.456;19.160;2023-02-14T00:56:36;102031.83;;;-0.34;71.82
61436;BME280;47304;47.456;19.160;2023-02-14T00:59:03;102025.81;;;-0.33;71.77
61436;BME280;47304;47.456;19.160;2023-02-14T01:01:29;102021.87;;;-0.33;71.92
61436;BME280;47304;47.456;19.160;2023-02-14T01:03:56;102019.30;;;-0.33;71.87
61436;BME280;47304;47.456;19.160;2023-02-14T01:06:23;102014.48;;;-0.33;71.90
61436;BME280;47304;47.456;19.160;2023-02-14T01:08:49;102013.95;;;-0.33;72.44
61436;BME280;47304;47.456;19.160;2023-02-14T01:11:20;102010.32;;;-0.30;72.98
61436;BME280;47304;47.456;19.160;2023-02-14T01:13:48;102004.54;;;-0.27;73.19
61436;BME280;47304;47.456;19.160;2023-02-14T01:16:18;102001.67;;;-0.23;73.44
61436;BME280;47304;47.456;19.160;2023-02-14T01:18:46;101998.19;;;-0.19;73.60
61436;BME280;47304;47.456;19.160;2023-02-14T01:21:19;101991.06;;;-0.15;73.65
61436;BME280;47304;47.456;19.160;2023-02-14T01:23:48;101991.05;;;-0.10;73.69
61436;BME280;47304;47.456;19.160;2023-02-14T01:26:15;101991.55;;;-0.05;73.83
61436;BME280;47304;47.456;19.160;2023-02-14T01:28:42;101984.17;;;0.00;74.45
61436;BME280;47304;47.456;19.160;2023-02-14T01:31:12;101985.33;;;0.05;74.36
61436;BME280;47304;47.456;19.160;2023-02-14T01:33:40;101985.84;;;0.09;74.35
61436;BME280;47304;47.456;19.160;2023-02-14T01:36:15;101990.76;;;0.13;74.24
61436;BME280;47304;47.456;19.160;2023-02-14T01:38:42;101985.17;;;0.18;74.20
61436;BME280;47304;47.456;19.160;2023-02-14T01:41:08;101979.23;;;0.22;74.20
61436;BME280;47304;47.456;19.160;2023-02-14T01:46:42;101980.88;;;0.28;73.85
61436;BME280;47304;47.456;19.160;2023-02-14T01:49:21;101984.95;;;0.30;73.81
61436;BME280;47304;47.456;19.160;2023-02-14T01:52:01;101984.02;;;0.32;73.61
61436;BME280;47304;47.456;19.160;2023-02-14T01:54:31;101987.88;;;0.33;73.51
61436;BME280;47304;47.456;19.160;2023-02-14T01:57:02;101982.55;;;0.30;73.31
61436;BME280;47304;47.456;19.160;2023-02-14T01:59:35;101981.92;;;0.28;73.04
61436;BME280;47304;47.456;19.160;2023-02-14T02:02:02;101986.13;;;0.24;72.65
61436;BME280;47304;47.456;19.160;2023-02-14T02:04:50;101979.26;;;0.20;72.45
61436;BME280;47304;47.456;19.160;2023-02-14T02:07:23;101978.64;;;0.15;72.33
61436;BME280;47304;47.456;19.160;2023-02-14T02:09:57;101972.94;;;0.10;72.17
61436;BME280;47304;47.456;19.160;2023-02-14T02:12:26;101975.92;;;0.06;72.22
61436;BME280;47304;47.456;19.160;2023-02-14T02:14:57;101973.05;;;0.01;72.13
61436;BME280;47304;47.456;19.160;2023-02-14T02:17:43;101964.29;;;-0.03;71.95
61436;BME280;47304;47.456;19.160;2023-02-14T02:21:20;101960.86;;;-0.08;71.96
61436;BME280;47304;47.456;19.160;2023-02-14T02:32:10;101953.84;;;-0.23;71.73
61436;BME280;47304;47.456;19.160;2023-02-14T02:40:27;101948.87;;;-0.35;71.94
61436;BME280;47304;47.456;19.160;2023-02-14T02:46:03;101951.77;;;-0.45;72.15
61436;BME280;47304;47.456;19.160;2023-02-14T02:48:36;101951.05;;;-0.48;71.99
61436;BME280;47304;47.456;19.160;2023-02-14T02:51:10;101954.73;;;-0.50;71.86
61436;BME280;47304;47.456;19.160;2023-02-14T02:53:43;101953.56;;;-0.52;71.87
61436;BME280;47304;47.456;19.160;2023-02-14T03:01:21;101949.09;;;-0.57;71.93
61436;BME280;47304;47.456;19.160;2023-02-14T03:03:54;101952.36;;;-0.59;71.97
61436;BME280;47304;47.456;19.160;2023-02-14T03:06:23;101954.48;;;-0.60;72.06
61436;BME280;47304;47.456;19.160;2023-02-14T03:08:49;101955.53;;;-0.63;72.33
61436;BME280;47304;47.456;19.160;2023-02-14T03:11:16;101955.86;;;-0.66;72.31
61436;BME280;47304;47.456;19.160;2023-02-14T03:14:03;101951.98;;;-0.67;72.29
61436;BME280;47304;47.456;19.160;2023-02-14T03:16:38;101946.11;;;-0.70;72.19
61436;BME280;47304;47.456;19.160;2023-02-14T03:24:32;101945.68;;;-0.73;72.30
61436;BME280;47304;47.456;19.160;2023-02-14T03:27:14;101944.73;;;-0.74;72.24
61436;BME280;47304;47.456;19.160;2023-02-14T03:29:55;101940.91;;;-0.75;72.37
61436;BME280;47304;47.456;19.160;2023-02-14T03:32:41;101943.08;;;-0.76;72.43
61436;BME280;47304;47.456;19.160;2023-02-14T03:35:14;101941.16;;;-0.76;72.37
61436;BME280;47304;47.456;19.160;2023-02-14T03:40:21;101942.61;;;-0.78;72.44
61436;BME280;47304;47.456;19.160;2023-02-14T03:42:58;101943.73;;;-0.80;72.41
61436;BME280;47304;47.456;19.160;2023-02-14T03:45:31;101940.77;;;-0.80;72.58
61436;BME280;47304;47.456;19.160;2023-02-14T03:48:03;101943.17;;;-0.80;72.90
61436;BME280;47304;47.456;19.160;2023-02-14T03:50:33;101945.34;;;-0.78;72.99
61436;BME280;47304;47.456;19.160;2023-02-14T03:53:02;101947.30;;;-0.77;73.07
61436;BME280;47304;47.456;19.160;2023-02-14T03:55:40;101946.79;;;-0.75;73.47
61436;BME280;47304;47.456;19.160;2023-02-14T03:58:24;101944.33;;;-0.73;73.65
61436;BME280;47304;47.456;19.160;2023-02-14T04:01:02;101946.48;;;-0.72;73.52
61436;BME280;47304;47.456;19.160;2023-02-14T04:03:31;101946.71;;;-0.69;73.48
61436;BME280;47304;47.456;19.160;2023-02-14T04:06:00;101948.34;;;-0.68;73.48
61436;BME280;47304;47.456;19.160;2023-02-14T04:08:28;101946.98;;;-0.67;73.37
61436;BME280;47304;47.456;19.160;2023-02-14T04:10:57;101945.52;;;-0.69;73.30
61436;BME280;47304;47.456;19.160;2023-02-14T04:13:26;101939.11;;;-0.69;73.36
61436;BME280;47304;47.456;19.160;2023-02-14T04:15:53;101941.55;;;-0.71;73.40
61436;BME280;47304;47.456;19.160;2023-02-14T04:18:20;101944.17;;;-0.73;73.35
61436;BME280;47304;47.456;19.160;2023-02-14T04:20:47;101946.35;;;-0.76;73.33
61436;BME280;47304;47.456;19.160;2023-02-14T04:23:13;101945.50;;;-0.76;73.29
61436;BME280;47304;47.456;19.160;2023-02-14T04:25:40;101949.27;;;-0.76;73.16
61436;BME280;47304;47.456;19.160;2023-02-14T04:28:06;101947.98;;;-0.77;73.10
61436;BME280;47304;47.456;19.160;2023-02-14T04:30:33;101948.37;;;-0.79;73.14
61436;BME280;47304;47.456;19.160;2023-02-14T04:32:59;101953.36;;;-0.82;72.94
61436;BME280;47304;47.456;19.160;2023-02-14T04:35:26;101955.83;;;-0.83;73.03
61436;BME280;47304;47.456;19.160;2023-02-14T04:37:52;101956.02;;;-0.85;72.92
61436;BME280;47304;47.456;19.160;2023-02-14T04:40:19;101958.50;;;-0.87;73.03
61436;BME280;47304;47.456;19.160;2023-02-14T04:42:45;101961.59;;;-0.90;72.92
61436;BME280;47304;47.456;19.160;2023-02-14T04:45:12;101959.67;;;-0.92;72.83
61436;BME280;47304;47.456;19.160;2023-02-14T04:47:39;101949.47;;;-0.96;72.95
61436;BME280;47304;47.456;19.160;2023-02-14T04:50:06;101951.77;;;-0.97;73.03
61436;BME280;47304;47.456;19.160;2023-02-14T04:52:32;101953.38;;;-0.99;73.07
61436;BME280;47304;47.456;19.160;2023-02-14T04:54:59;101953.68;;;-0.99;73.07
61436;BME280;47304;47.456;19.160;2023-02-14T04:57:26;101952.39;;;-1.00;72.99
61436;BME280;47304;47.456;19.160;2023-02-14T04:59:52;101954.42;;;-1.01;73.01
61436;BME280;47304;47.456;19.160;2023-02-14T05:02:19;101951.45;;;-1.02;72.85
61436;BME280;47304;47.456;19.160;2023-02-14T05:04:45;101955.77;;;-1.03;72.92
61436;BME280;47304;47.456;19.160;2023-02-14T05:07:14;101950.57;;;-1.04;72.95
61436;BME280;47304;47.456;19.160;2023-02-14T05:09:41;101949.56;;;-1.06;73.04
61436;BME280;47304;47.456;19.160;2023-02-14T05:12:08;101949.52;;;-1.07;73.14
61436;BME280;47304;47.456;19.160;2023-02-14T05:14:34;101951.19;;;-1.07;72.86
61436;BME280;47304;47.456;19.160;2023-02-14T05:17:01;101951.91;;;-1.10;72.84
61436;BME280;47304;47.456;19.160;2023-02-14T05:19:27;101948.92;;;-1.11;72.87
61436;BME280;47304;47.456;19.160;2023-02-14T05:21:54;101949.41;;;-1.11;72.80
61436;BME280;47304;47.456;19.160;2023-02-14T05:24:20;101949.63;;;-1.13;72.73
61436;BME280;47304;47.456;19.160;2023-02-14T05:26:47;101953.14;;;-1.14;72.68
61436;BME280;47304;47.456;19.160;2023-02-14T05:29:13;101951.71;;;-1.15;72.59
61436;BME280;47304;47.456;19.160;2023-02-14T05:31:40;101951.39;;;-1.17;72.59
61436;BME280;47304;47.456;19.160;2023-02-14T05:34:06;101956.30;;;-1.18;72.84
61436;BME280;47304;47.456;19.160;2023-02-14T05:36:33;101953.67;;;-1.19;72.82
61436;BME280;47304;47.456;19.160;2023-02-14T05:38:59;101955.39;;;-1.19;72.79
61436;BME280;47304;47.456;19.160;2023-02-14T05:41:26;101957.44;;;-1.19;72.77
61436;BME280;47304;47.456;19.160;2023-02-14T05:43:53;101953.39;;;-1.20;72.70
61436;BME280;47304;47.456;19.160;2023-02-14T05:46:19;101953.25;;;-1.22;72.74
61436;BME280;47304;47.456;19.160;2023-02-14T05:48:46;101953.52;;;-1.23;72.82
61436;BME280;47304;47.456;19.160;2023-02-14T05:51:12;101952.94;;;-1.24;72.84
61436;BME280;47304;47.456;19.160;2023-02-14T05:53:39;101951.02;;;-1.24;72.74
61436;BME280;47304;47.456;19.160;2023-02-14T05:56:06;101955.16;;;-1.24;72.82
61436;BME280;47304;47.456;19.160;2023-02-14T05:58:33;101964.48;;;-1.24;72.79
61436;BME280;47304;47.456;19.160;2023-02-14T06:01:00;101967.40;;;-1.24;72.97
61436;BME280;47304;47.456;19.160;2023-02-14T06:03:27;101967.91;;;-1.24;73.18
61436;BME280;47304;47.456;19.160;2023-02-14T06:05:53;101970.91;;;-1.22;73.35
61436;BME280;47304;47.456;19.160;2023-02-14T06:08:20;101969.14;;;-1.21;73.38
61436;BME280;47304;47.456;19.160;2023-02-14T06:10:46;101971.70;;;-1.19;73.33
61436;BME280;47304;47.456;19.160;2023-02-14T06:13:13;101977.36;;;-1.17;73.32
61436;BME280;47304;47.456;19.160;2023-02-14T06:15:40;101980.69;;;-1.14;73.37
61436;BME280;47304;47.456;19.160;2023-02-14T06:18:06;101980.68;;;-1.11;73.34
61436;BME280;47304;47.456;19.160;2023-02-14T06:20:33;101982.58;;;-1.06;73.52
61436;BME280;47304;47.456;19.160;2023-02-14T06:23:00;101985.99;;;-1.02;73.46
61436;BME280;47304;47.456;19.160;2023-02-14T06:25:27;101987.45;;;-0.98;73.66
61436;BME280;47304;47.456;19.160;2023-02-14T06:27:57;101999.45;;;-0.92;74.09
61436;BME280;47304;47.456;19.160;2023-02-14T06:30:24;102001.78;;;-0.88;73.77
61436;BME280;47304;47.456;19.160;2023-02-14T06:32:51;102007.07;;;-0.84;73.82
61436;BME280;47304;47.456;19.160;2023-02-14T06:35:18;102010.35;;;-0.79;74.03
61436;BME280;47304;47.456;19.160;2023-02-14T06:37:45;102008.33;;;-0.74;74.00
61436;BME280;47304;47.456;19.160;2023-02-14T06:40:12;102016.10;;;-0.68;73.75
61436;BME280;47304;47.456;19.160;2023-02-14T06:42:39;102024.25;;;-0.63;73.75
61436;BME280;47304;47.456;19.160;2023-02-14T06:45:06;102022.23;;;-0.57;73.74
61436;BME280;47304;47.456;19.160;2023-02-14T06:47:33;102022.89;;;-0.50;73.44
61436;BME280;47304;47.456;19.160;2023-02-14T06:50:01;102025.96;;;-0.46;73.34
61436;BME280;47304;47.456;19.160;2023-02-14T06:52:27;102026.64;;;-0.41;73.77
61436;BME280;47304;47.456;19.160;2023-02-14T06:54:54;102028.98;;;-0.32;74.68
61436;BME280;47304;47.456;19.160;2023-02-14T06:57:20;102028.39;;;-0.21;74.98
61436;BME280;47304;47.456;19.160;2023-02-14T06:59:47;102028.08;;;-0.10;74.96
61436;BME280;47304;47.456;19.160;2023-02-14T07:02:13;102031.40;;;-0.02;74.85
61436;BME280;47304;47.456;19.160;2023-02-14T07:04:40;102031.58;;;0.08;74.77
61436;BME280;47304;47.456;19.160;2023-02-14T07:07:06;102032.75;;;0.18;74.57
61436;BME280;47304;47.456;19.160;2023-02-14T07:09:33;102033.05;;;0.27;74.90
61436;BME280;47304;47.456;19.160;2023-02-14T07:11:59;102035.38;;;0.39;75.06
61436;BME280;47304;47.456;19.160;2023-02-14T07:14:26;102032.66;;;0.50;74.91
61436;BME280;47304;47.456;19.160;2023-02-14T07:16:52;102032.77;;;0.62;74.64
61436;BME280;47304;47.456;19.160;2023-02-14T07:19:19;102033.57;;;0.74;74.46
61436;BME280;47304;47.456;19.160;2023-02-14T07:21:45;102036.00;;;0.85;74.65
61436;BME280;47304;47.456;19.160;2023-02-14T07:24:12;102036.98;;;0.97;74.84
61436;BME280;47304;47.456;19.160;2023-02-14T07:26:38;102040.32;;;1.12;74.75
61436;BME280;47304;47.456;19.160;2023-02-14T07:29:08;102044.99;;;1.25;74.56
61436;BME280;47304;47.456;19.160;2023-02-14T07:31:35;102043.92;;;1.36;74.33
61436;BME280;47304;47.456;19.160;2023-02-14T07:34:02;102049.58;;;1.46;74.14
61436;BME280;47304;47.456;19.160;2023-02-14T07:36:28;102049.00;;;1.56;73.79
61436;BME280;47304;47.456;19.160;2023-02-14T07:38:55;102048.44;;;1.66;73.55
61436;BME280;47304;47.456;19.160;2023-02-14T07:41:22;102048.36;;;1.77;73.25
61436;BME280;47304;47.456;19.160;2023-02-14T07:43:49;102049.23;;;1.88;73.03
61436;BME280;47304;47.456;19.160;2023-02-14T07:46:16;102052.02;;;1.99;72.87
61436;BME280;47304;47.456;19.160;2023-02-14T07:48:43;102055.17;;;2.12;72.55
61436;BME280;47304;47.456;19.160;2023-02-14T07:51:09;102050.50;;;2.23;72.21
61436;BME280;47304;47.456;19.160;2023-02-14T07:53:36;102055.24;;;2.30;71.78
61436;BME280;47304;47.456;19.160;2023-02-14T07:56:02;102056.40;;;2.38;71.57
61436;BME280;47304;47.456;19.160;2023-02-14T07:58:29;102061.89;;;2.49;71.49
61436;BME280;47304;47.456;19.160;2023-02-14T08:00:55;102062.74;;;2.60;71.31
61436;BME280;47304;47.456;19.160;2023-02-14T08:03:22;102062.45;;;2.73;70.92
61436;BME280;47304;47.456;19.160;2023-02-14T08:05:48;102062.92;;;2.84;70.72
61436;BME280;47304;47.456;19.160;2023-02-14T08:08:15;102059.61;;;2.92;70.42
61436;BME280;47304;47.456;19.160;2023-02-14T08:10:41;102059.31;;;3.03;70.40
61436;BME280;47304;47.456;19.160;2023-02-14T08:13:08;102054.92;;;3.14;69.89
61436;BME280;47304;47.456;19.160;2023-02-14T08:15:34;102052.00;;;3.20;69.24
61436;BME280;47304;47.456;19.160;2023-02-14T08:18:01;102048.16;;;3.26;69.12
61436;BME280;47304;47.456;19.160;2023-02-14T08:20:28;102045.61;;;3.36;69.21
61436;BME280;47304;47.456;19.160;2023-02-14T08:22:55;102047.39;;;3.50;69.15
61436;BME280;47304;47.456;19.160;2023-02-14T08:25:21;102044.89;;;3.65;68.82
61436;BME280;47304;47.456;19.160;2023-02-14T08:27:48;102048.99;;;3.76;68.65
61436;BME280;47304;47.456;19.160;2023-02-14T08:30:14;102051.35;;;3.88;68.55
61436;BME280;47304;47.456;19.160;2023-02-14T08:32:41;102044.81;;;4.02;68.30
61436;BME280;47304;47.456;19.160;2023-02-14T08:35:08;102045.33;;;4.15;67.70
61436;BME280;47304;47.456;19.160;2023-02-14T08:37:34;102049.73;;;4.33;67.64
61436;BME280;47304;47.456;19.160;2023-02-14T08:40:01;102051.11;;;4.71;67.58
61436;BME280;47304;47.456;19.160;2023-02-14T08:42:27;102042.17;;;5.71;67.13
61436;BME280;47304;47.456;19.160;2023-02-14T08:44:54;102035.92;;;8.26;64.31
61436;BME280;47304;47.456;19.160;2023-02-14T08:47:20;102024.64;;;11.05;59.39
61436;BME280;47304;47.456;19.160;2023-02-14T08:49:47;102021.03;;;13.65;55.22
61436;BME280;47304;47.456;19.160;2023-02-14T08:52:13;102012.80;;;15.91;47.02
61436;BME280;47304;47.456;19.160;2023-02-14T08:54:40;102008.85;;;17.82;44.77
61436;BME280;47304;47.456;19.160;2023-02-14T08:57:06;102003.92;;;19.73;40.30
61436;BME280;47304;47.456;19.160;2023-02-14T08:59:33;102006.97;;;21.32;36.94
61436;BME280;47304;47.456;19.160;2023-02-14T09:01:59;102004.46;;;22.65;34.19
61436;BME280;47304;47.456;19.160;2023-02-14T09:04:26;102005.38;;;22.79;31.90
61436;BME280;47304;47.456;19.160;2023-02-14T09:06:53;102005.47;;;21.80;31.27
61436;BME280;47304;47.456;19.160;2023-02-14T09:09:19;102003.48;;;20.43;30.53
61436;BME280;47304;47.456;19.160;2023-02-14T09:11:46;102009.10;;;19.06;32.46
61436;BME280;47304;47.456;19.160;2023-02-14T09:14:12;102009.13;;;18.09;33.45
61436;BME280;47304;47.456;19.160;2023-02-14T09:16:39;102008.38;;;17.20;34.14
61436;BME280;47304;47.456;19.160;2023-02-14T09:19:05;102010.52;;;17.22;33.82
61436;BME280;47304;47.456;19.160;2023-02-14T09:21:32;102006.41;;;18.85;33.29
61436;BME280;47304;47.456;19.160;2023-02-14T09:23:58;101997.15;;;21.02;31.72
61436;BME280;47304;47.456;19.160;2023-02-14T09:26:25;101996.42;;;23.11;29.20
61436;BME280;47304;47.456;19.160;2023-02-14T09:28:51;101994.05;;;25.20;27.22
61436;BME280;47304;47.456;19.160;2023-02-14T09:31:20;102001.35;;;27.16;24.74
61436;BME280;47304;47.456;19.160;2023-02-14T09:33:48;101992.93;;;28.97;22.78
61436;BME280;47304;47.456;19.160;2023-02-14T09:36:16;101995.86;;;30.56;21.30
61436;BME280;47304;47.456;19.160;2023-02-14T09:38:42;101993.08;;;32.20;20.18
61436;BME280;47304;47.456;19.160;2023-02-14T09:44:06;101995.77;;;34.56;17.34
61436;BME280;47304;47.456;19.160;2023-02-14T09:46:42;101998.16;;;35.54;16.22
61436;BME280;47304;47.456;19.160;2023-02-14T09:49:16;101995.44;;;35.96;14.07
61436;BME280;47304;47.456;19.160;2023-02-14T09:51:49;101993.75;;;35.77;14.24
61436;BME280;47304;47.456;19.160;2023-02-14T09:54:25;101994.53;;;35.92;13.33
61436;BME280;47304;47.456;19.160;2023-02-14T09:59:52;101994.33;;;36.64;13.29
61436;BME280;47304;47.456;19.160;2023-02-14T10:02:57;101996.77;;;36.83;12.85
61436;BME280;47304;47.456;19.160;2023-02-14T10:05:38;101991.27;;;37.51;13.03
61436;BME280;47304;47.456;19.160;2023-02-14T10:11:13;101989.77;;;37.01;12.45
61436;BME280;47304;47.456;19.160;2023-02-14T10:13:45;101986.98;;;36.73;13.02
61436;BME280;47304;47.456;19.160;2023-02-14T10:16:19;101988.33;;;37.25;12.25
61436;BME280;47304;47.456;19.160;2023-02-14T10:21:43;101985.31;;;37.91;11.88
61436;BME280;47304;47.456;19.160;2023-02-14T10:24:34;101989.31;;;38.39;11.54
61436;BME280;47304;47.456;19.160;2023-02-14T10:27:11;101989.84;;;38.73;10.46
61436;BME280;47304;47.456;19.160;2023-02-14T10:29:43;101983.54;;;39.15;10.46
61436;BME280;47304;47.456;19.160;2023-02-14T10:32:13;101979.73;;;39.91;10.27
61436;BME280;47304;47.456;19.160;2023-02-14T10:34:50;101977.70;;;41.14;10.14
61436;BME280;47304;47.456;19.160;2023-02-14T10:45:46;101958.52;;;45.30;7.65
61436;BME280;47304;47.456;19.160;2023-02-14T11:02:16;101943.60;;;45.57;7.01
61436;BME280;47304;47.456;19.160;2023-02-14T11:04:44;101946.92;;;45.51;6.74
61436;BME280;47304;47.456;19.160;2023-02-14T11:07:16;101945.11;;;45.23;6.77
61436;BME280;47304;47.456;19.160;2023-02-14T11:09:43;101945.48;;;44.95;6.87
61436;BME280;47304;47.456;19.160;2023-02-14T11:12:10;101937.95;;;45.18;7.14
61436;BME280;47304;47.456;19.160;2023-02-14T11:14:38;101934.93;;;45.63;7.18
61436;BME280;47304;47.456;19.160;2023-02-14T11:17:29;101935.74;;;45.49;6.84
61436;BME280;47304;47.456;19.160;2023-02-14T11:19:58;101940.12;;;45.04;6.86
61436;BME280;47304;47.456;19.160;2023-02-14T11:22:30;101936.80;;;44.75;6.41
61436;BME280;47304;47.456;19.160;2023-02-14T11:25:20;101939.00;;;43.72;7.21
61436;BME280;47304;47.456;19.160;2023-02-14T11:27:50;101936.75;;;42.82;7.80
61436;BME280;47304;47.456;19.160;2023-02-14T11:30:39;101937.34;;;42.19;8.14
61436;BME280;47304;47.456;19.160;2023-02-14T11:33:37;101935.10;;;40.62;8.52
61436;BME280;47304;47.456;19.160;2023-02-14T11:36:09;101933.20;;;37.37;9.90
61436;BME280;47304;47.456;19.160;2023-02-14T11:38:38;101936.36;;;34.29;11.24
61436;BME280;47304;47.456;19.160;2023-02-14T11:41:08;101938.03;;;31.59;12.95
61436;BME280;47304;47.456;19.160;2023-02-14T11:43:37;101942.68;;;29.00;14.72
61436;BME280;47304;47.456;19.160;2023-02-14T11:46:24;101941.20;;;27.55;16.65
61436;BME280;47304;47.456;19.160;2023-02-14T11:51:45;101937.13;;;26.85;17.07
61436;BME280;47304;47.456;19.160;2023-02-14T11:56:56;101939.16;;;26.11;17.72
61436;BME280;47304;47.456;19.160;2023-02-14T11:59:37;101938.64;;;25.65;18.00
61436;BME280;47304;47.456;19.160;2023-02-14T12:05:15;101933.80;;;25.56;18.47
61436;BME280;47304;47.456;19.160;2023-02-14T12:07:42;101929.33;;;26.36;18.56
61436;BME280;47304;47.456;19.160;2023-02-14T12:12:36;101934.63;;;26.25;17.62
61436;BME280;47304;47.456;19.160;2023-02-14T12:15:25;101934.30;;;25.42;18.24
61436;BME280;47304;47.456;19.160;2023-02-14T12:18:02;101930.39;;;24.34;19.03
61436;BME280;47304;47.456;19.160;2023-02-14T12:20:43;101927.11;;;23.44;20.00
61436;BME280;47304;47.456;19.160;2023-02-14T12:23:19;101925.47;;;22.67;20.99
61436;BME280;47304;47.456;19.160;2023-02-14T12:25:55;101929.83;;;21.91;21.60
61436;BME280;47304;47.456;19.160;2023-02-14T12:28:42;101925.20;;;21.23;22.45
61436;BME280;47304;47.456;19.160;2023-02-14T12:31:11;101926.27;;;20.33;23.69
61436;BME280;47304;47.456;19.160;2023-02-14T12:33:39;101916.58;;;19.23;24.63
61436;BME280;47304;47.456;19.160;2023-02-14T12:36:24;101921.66;;;18.17;25.80
61436;BME280;47304;47.456;19.160;2023-02-14T12:58:26;101906.14;;;15.06;30.83
61436;BME280;47304;47.456;19.160;2023-02-14T13:06:30;101902.86;;;15.20;32.13
61436;BME280;47304;47.456;19.160;2023-02-14T13:15:18;101898.94;;;15.14;31.79
61436;BME280;47304;47.456;19.160;2023-02-14T13:17:51;101895.05;;;15.09;32.36
61436;BME280;47304;47.456;19.160;2023-02-14T13:20:37;101893.95;;;15.05;32.11
61436;BME280;47304;47.456;19.160;2023-02-14T13:23:15;101888.89;;;15.12;32.15
61436;BME280;47304;47.456;19.160;2023-02-14T13:26:14;101888.58;;;15.24;31.53
61436;BME280;47304;47.456;19.160;2023-02-14T13:28:51;101890.09;;;15.52;31.03
61436;BME280;47304;47.456;19.160;2023-02-14T13:31:21;101891.81;;;15.38;31.07
61436;BME280;47304;47.456;19.160;2023-02-14T13:33:56;101889.71;;;15.05;31.16
61436;BME280;47304;47.456;19.160;2023-02-14T13:36:24;101888.35;;;14.78;31.81
61436;BME280;47304;47.456;19.160;2023-02-14T13:38:53;101888.56;;;14.62;32.04
61436;BME280;47304;47.456;19.160;2023-02-14T13:41:26;101887.24;;;14.51;32.20
61436;BME280;47304;47.456;19.160;2023-02-14T13:44:00;101889.36;;;14.31;32.54
61436;BME280;47304;47.456;19.160;2023-02-14T13:51:50;101891.97;;;13.54;33.91
61436;BME280;47304;47.456;19.160;2023-02-14T13:54:51;101893.88;;;13.68;33.74
61436;BME280;47304;47.456;19.160;2023-02-14T13:57:26;101891.55;;;13.81;33.27
61436;BME280;47304;47.456;19.160;2023-02-14T14:02:53;101887.33;;;13.99;33.61
61436;BME280;47304;47.456;19.160;2023-02-14T14:08:32;101880.81;;;14.41;32.83
61436;BME280;47304;47.456;19.160;2023-02-14T14:11:02;101885.38;;;14.17;32.83
61436;BME280;47304;47.456;19.160;2023-02-14T14:18:52;101899.98;;;12.95;34.46
61436;BME280;47304;47.456;19.160;2023-02-14T14:27:44;101904.06;;;12.18;35.75
61436;BME280;47304;47.456;19.160;2023-02-14T14:29:56;101900.09;;;11.94;36.55
61436;BME280;47304;47.456;19.160;2023-02-14T14:35:00;101895.31;;;11.75;37.38
61436;BME280;47304;47.456;19.160;2023-02-14T14:37:30;101891.45;;;11.64;37.72
61436;BME280;47304;47.456;19.160;2023-02-14T14:40:03;101886.52;;;11.46;37.38
61436;BME280;47304;47.456;19.160;2023-02-14T14:42:36;101886.04;;;11.31;37.58
61436;BME280;47304;47.456;19.160;2023-02-14T14:45:19;101887.09;;;11.14;37.89
61436;BME280;47304;47.456;19.160;2023-02-14T14:47:47;101889.85;;;10.95;38.40
61436;BME280;47304;47.456;19.160;2023-02-14T14:53:05;101894.95;;;10.73;40.12
61436;BME280;47304;47.456;19.160;2023-02-14T14:55:35;101893.80;;;10.61;39.52
61436;BME280;47304;47.456;19.160;2023-02-14T14:58:05;101891.42;;;10.50;40.16
61436;BME280;47304;47.456;19.160;2023-02-14T15:00:36;101891.77;;;10.42;40.87
61436;BME280;47304;47.456;19.160;2023-02-14T15:03:14;101895.15;;;10.38;40.56
61436;BME280;47304;47.456;19.160;2023-02-14T15:05:46;101889.73;;;10.31;40.31
61436;BME280;47304;47.456;19.160;2023-02-14T15:13:18;101895.39;;;10.07;41.91
61436;BME280;47304;47.456;19.160;2023-02-14T15:15:47;101897.98;;;9.98;41.34
61436;BME280;47304;47.456;19.160;2023-02-14T15:18:16;101896.92;;;9.91;42.45
61436;BME280;47304;47.456;19.160;2023-02-14T15:20:48;101894.81;;;9.84;42.70